Route Details

Aircraft Information
Group: North America Fleet
Types: B738, B752, B762, B763
Route Data
Distance: 640nm
Duration: 2h 10m
Origin METAR: KSDF 160056Z 02008KT 10SM FEW045 FEW090 FEW250 OVC300 26/19 A2994 RMK AO2 SLP135 T02560189
Dest. METAR: KLAL 160050Z 22005KT 10SM SKC 27/23 A2991
Freight Data
(for Aug 16, 2022)
Load Factor:
25%
Manifested Cargo: 15,573lbs
Financial History
Total Freight: 58,307lbs
Average Load: 0lbs/flt
Fuel Used: 25,023lbs
Avg. Fuel Used: 0lbs/flt
Fuel Expense: $10,009
Avg. Fuel Expense: $0
Avg. Fuel Cost: $0/lbs
Total Gross Income: $148,683
Pilot Pay: $169
Total Expenses: $28,982
Total Revenue: $108,988
Average Revenue: $0

Capitol Logistics 481




KSDF
Muhammad Ali International Airport
Louisville, Kentucky
KLAL
Lakeland Linder Regional Airport
Lakeland, Florida

Activity Log

Date Flight Route Aircraft Duration
07/22/2022 CPX481 FEDRA5 OHAGI DCT VXV DCT ATL DCT KRVUR DCT LUBBR LUBBR3 B763 2h 08m